»·PEaware :: ANW757 SKCG-MSLP

ANW757 :: SKCG-MSLP

FLIGHT INFORMATION

Flight Status: Arrived
Operator:
Air Northwest (website)
More flights by this operator :: More flights under this callsign
Pilot: Lee W. (44)
Aircraft: DEHAVILLAND DASH 8 400
(DH8D)
More flights by this aircraft type
Origin: SKCG Rafael Nunez
Colombia
Destination: MSLP El Salvador Intl
El Salvador
More flights between these airports :: More routes between these airports
Route: CTG DCT TBG DCT LIO
File this flight plan on PilotEdge
Remarks:
Altitude:
(Current/Filed)
16,000ft
Speed:
(Current/Filed)
400kts
Departed: 26-Feb-11 05:19 AM
Arrived: 26-Feb-11 08:34 AM
Distance/Time
Traveled:
815nm/3:15
Distance/Time
To Go:
Arrived

Flight Plot

Page will automatically refresh every two minutes.


Map Options




Map Legend


Flown Route
Filed Route
Departure Airport
Arrival Airport
Navaid (VOR, NDB)
Fix

Horizontal Profiles

Position Reports

Time Latitude Longitude Heading Altitude Ground
Speed
26-Feb-11 05:14 10.443214 -75.511780 0 11ft 0kts
26-Feb-11 05:15 10.443214 -75.511780 0 11ft 0kts
26-Feb-11 05:16 10.445856 -75.511653 0 11ft 34kts
26-Feb-11 05:17 10.453689 -75.511343 352 11ft 14kts
26-Feb-11 05:18 10.451966 -75.512556 182 11ft 53kts
26-Feb-11 05:19 10.403305 -75.512294 176 816ft 248kts
26-Feb-11 05:20 10.332576 -75.509785 177 2220ft 256kts
26-Feb-11 05:21 10.261718 -75.507656 177 3562ft 261kts
26-Feb-11 05:22 10.201622 -75.534569 244 4763ft 268kts
26-Feb-11 05:23 10.174112 -75.607940 249 6292ft 293kts
26-Feb-11 05:24 10.146661 -75.688166 250 7807ft 306kts
26-Feb-11 05:25 10.118636 -75.770674 250 9316ft 311kts
26-Feb-11 05:26 10.090235 -75.854264 250 10822ft 315kts
26-Feb-11 05:27 10.061421 -75.939000 250 12328ft 320kts
26-Feb-11 05:28 10.032103 -76.025134 250 13838ft 325kts
26-Feb-11 05:29 10.001992 -76.112623 249 15350ft 330kts
26-Feb-11 05:30 9.970727 -76.202957 249 15986ft 356kts
26-Feb-11 05:31 9.943223 -76.282399 249 15982ft 363kts
26-Feb-11 05:32 9.909238 -76.380457 249 15982ft 373kts
26-Feb-11 05:33 9.874597 -76.480304 249 15981ft 375kts
26-Feb-11 05:34 9.839836 -76.580387 249 15981ft 376kts
26-Feb-11 05:35 9.805295 -76.679601 249 15980ft 376kts
26-Feb-11 05:36 9.770417 -76.779661 250 15970ft 376kts
26-Feb-11 05:37 9.735622 -76.879563 250 15970ft 375kts
26-Feb-11 05:38 9.700926 -76.979092 250 15970ft 374kts
26-Feb-11 05:39 9.666184 -77.078607 250 15970ft 373kts
26-Feb-11 05:40 9.631557 -77.177683 250 15970ft 373kts
26-Feb-11 05:41 9.596844 -77.276903 250 15970ft 373kts
26-Feb-11 05:42 9.562222 -77.375764 250 15970ft 373kts
26-Feb-11 05:43 9.527430 -77.475008 250 15970ft 373kts
26-Feb-11 05:44 9.492735 -77.573876 250 15970ft 373kts
26-Feb-11 05:45 9.457963 -77.672741 250 15970ft 373kts
26-Feb-11 05:46 9.423178 -77.771599 250 15970ft 373kts
26-Feb-11 05:47 9.388336 -77.870587 250 15970ft 373kts
26-Feb-11 05:48 9.353600 -77.969157 250 15970ft 373kts
26-Feb-11 05:49 9.318710 -78.068037 250 15970ft 373kts
26-Feb-11 05:50 9.283793 -78.166947 250 15970ft 373kts
26-Feb-11 05:51 9.248864 -78.265793 250 15970ft 373kts
26-Feb-11 05:52 9.213883 -78.364692 250 15970ft 373kts
26-Feb-11 05:53 9.178915 -78.463459 250 15970ft 373kts
26-Feb-11 05:54 9.144184 -78.561462 250 15988ft 371kts
26-Feb-11 05:55 9.109418 -78.659390 250 15993ft 370kts
26-Feb-11 05:56 9.074611 -78.757329 250 15994ft 369kts
26-Feb-11 05:57 9.039945 -78.854861 250 15994ft 369kts
26-Feb-11 05:58 9.005081 -78.952867 250 15994ft 369kts
26-Feb-11 05:59 8.970363 -79.050370 250 15994ft 368kts
26-Feb-11 06:01 8.901405 -79.243768 250 15995ft 365kts
26-Feb-11 06:02 8.866671 -79.341050 250 15994ft 368kts
26-Feb-11 06:03 8.832288 -79.437261 250 16022ft 368kts
26-Feb-11 06:04 8.800593 -79.525873 250 16023ft 369kts
26-Feb-11 06:05 8.809839 -79.625721 288 16023ft 368kts
26-Feb-11 06:06 8.841681 -79.722658 288 14528ft 361kts
26-Feb-11 06:07 8.858917 -79.775166 288 13481ft 356kts
26-Feb-11 06:08 8.887795 -79.831478 322 12122ft 349kts
26-Feb-11 06:09 8.972351 -79.828613 5 10034ft 286kts
26-Feb-11 06:10 9.045653 -79.831682 354 8121ft 251kts
26-Feb-11 06:11 9.110178 -79.848649 342 6190ft 233kts
26-Feb-11 06:12 9.160899 -79.864994 342 4579ft 223kts
26-Feb-11 06:13 9.212089 -79.881492 342 2996ft 210kts
26-Feb-11 06:14 9.264942 -79.875517 16 1191ft 189kts
26-Feb-11 06:15 9.304704 -79.869043 2 602ft 130kts
26-Feb-11 06:16 9.339487 -79.867898 0 142ft 121kts
26-Feb-11 06:17 9.356637 -79.867654 288 32ft 13kts
26-Feb-11 06:18 9.356669 -79.868132 271 32ft 0kts
26-Feb-11 06:19 9.354373 -79.868645 181 32ft 29kts
26-Feb-11 06:20 9.348550 -79.868598 110 32ft 13kts
26-Feb-11 06:21 9.355469 -79.867465 2 32ft 124kts
26-Feb-11 06:22 9.382216 -79.907810 258 619ft 275kts
26-Feb-11 06:23 9.380759 -79.984366 278 1066ft 274kts
26-Feb-11 06:24 9.394199 -80.060626 281 1567ft 276kts
26-Feb-11 06:25 9.409098 -80.137253 281 2070ft 277kts
26-Feb-11 06:26 9.424177 -80.214198 281 2571ft 279kts
26-Feb-11 06:27 9.439399 -80.291902 281 3753ft 290kts
26-Feb-11 06:29 9.469062 -80.443585 281 6333ft 304kts
26-Feb-11 06:30 9.488346 -80.542382 281 7970ft 308kts
26-Feb-11 06:31 9.505002 -80.627842 281 9370ft 311kts
26-Feb-11 06:32 9.521687 -80.713907 281 10762ft 315kts
26-Feb-11 06:33 9.538687 -80.801407 281 12164ft 319kts
26-Feb-11 06:35 9.570437 -80.965079 281 14737ft 327kts
26-Feb-11 06:36 9.588028 -81.055946 281 16139ft 331kts
26-Feb-11 06:37 9.605838 -81.148076 281 17542ft 335kts
26-Feb-11 06:38 9.623856 -81.241421 281 18945ft 339kts
26-Feb-11 06:39 9.641899 -81.334997 281 20334ft 343kts
26-Feb-11 06:40 9.660318 -81.430698 281 21733ft 350kts
26-Feb-11 06:41 9.679873 -81.531864 278 22000ft 381kts
26-Feb-11 06:42 9.700088 -81.637690 277 21992ft 381kts
26-Feb-11 06:43 9.719909 -81.741779 278 21991ft 371kts
26-Feb-11 06:44 9.739348 -81.843500 279 21990ft 364kts
26-Feb-11 06:45 9.758448 -81.943545 279 21990ft 360kts
26-Feb-11 06:46 9.777387 -82.042909 279 21989ft 358kts
26-Feb-11 06:47 9.796213 -82.141853 280 21989ft 356kts
26-Feb-11 06:48 9.814922 -82.240259 279 22071ft 355kts
26-Feb-11 06:49 9.833761 -82.339649 279 22077ft 361kts
26-Feb-11 06:50 9.852815 -82.440353 279 22078ft 366kts
26-Feb-11 06:51 9.872104 -82.542432 279 22078ft 370kts
26-Feb-11 06:52 9.891372 -82.644600 279 22060ft 372kts
26-Feb-11 06:53 9.910798 -82.748092 279 22059ft 375kts
26-Feb-11 06:54 9.930427 -82.852553 279 22059ft 378kts
26-Feb-11 06:55 9.950144 -82.957626 279 22059ft 380kts
26-Feb-11 06:56 9.984427 -83.057964 304 22062ft 386kts
26-Feb-11 06:57 10.046901 -83.146542 303 22059ft 386kts
26-Feb-11 06:58 10.109156 -83.235352 303 22059ft 387kts
26-Feb-11 06:59 10.171584 -83.324507 303 22059ft 387kts
26-Feb-11 07:00 10.233721 -83.413359 304 22079ft 384kts
26-Feb-11 07:01 10.295249 -83.501381 305 22078ft 381kts
26-Feb-11 07:02 10.356455 -83.588952 305 22079ft 381kts
26-Feb-11 07:03 10.417405 -83.676374 305 22080ft 383kts
26-Feb-11 07:04 10.479009 -83.764721 305 22158ft 381kts
26-Feb-11 07:05 10.540313 -83.852561 302 22159ft 382kts
26-Feb-11 07:06 10.602503 -83.942090 303 22192ft 394kts
26-Feb-11 07:07 10.665915 -84.033251 305 22192ft 404kts
26-Feb-11 07:08 10.731131 -84.126972 306 22193ft 405kts
26-Feb-11 07:09 10.795922 -84.220207 307 22193ft 403kts
26-Feb-11 07:10 10.860615 -84.313404 307 22194ft 401kts
26-Feb-11 07:11 10.924797 -84.405953 307 22194ft 400kts
26-Feb-11 07:12 10.987093 -84.495911 307 22177ft 360kts
26-Feb-11 07:13 11.046099 -84.581096 307 22194ft 371kts
26-Feb-11 07:14 11.104826 -84.666102 307 22189ft 370kts
26-Feb-11 07:15 11.161913 -84.748752 307 21910ft 366kts
26-Feb-11 07:16 11.219402 -84.831929 307 20801ft 354kts
26-Feb-11 07:17 11.275543 -84.913278 307 19696ft 346kts
26-Feb-11 07:18 11.330180 -84.992521 307 18593ft 339kts
26-Feb-11 07:19 11.383911 -85.070509 307 17485ft 332kts
26-Feb-11 07:20 11.436418 -85.146775 307 16381ft 326kts
26-Feb-11 07:21 11.488090 -85.221886 307 15274ft 321kts
26-Feb-11 07:22 11.539006 -85.295951 306 14165ft 316kts
26-Feb-11 07:23 11.588951 -85.368656 306 13059ft 311kts
26-Feb-11 07:24 11.637757 -85.439755 306 11961ft 306kts
26-Feb-11 07:25 11.686628 -85.510854 305 11123ft 311kts
26-Feb-11 07:26 11.735439 -85.581762 304 10319ft 301kts
26-Feb-11 07:27 11.775169 -85.654762 298 9524ft 296kts
26-Feb-11 07:28 11.814080 -85.727725 298 8729ft 293kts
26-Feb-11 07:29 11.845094 -85.789266 295 8058ft 291kts
26-Feb-11 07:30 11.885474 -85.875359 295 7126ft 287kts
26-Feb-11 07:31 11.919556 -85.947849 295 6330ft 283kts
26-Feb-11 07:32 11.950028 -86.012548 295 5608ft 236kts
26-Feb-11 07:34 12.002044 -86.122768 295 4510ft 234kts
26-Feb-11 07:35 12.030249 -86.182425 295 3908ft 232kts
26-Feb-11 07:36 12.058228 -86.241537 296 3307ft 230kts
26-Feb-11 07:37 12.090504 -86.309643 296 3060ft 229kts
26-Feb-11 07:38 12.113602 -86.357202 307 3055ft 194kts
26-Feb-11 07:39 12.158599 -86.348135 48 3033ft 182kts
26-Feb-11 07:40 12.156205 -86.297739 98 2551ft 181kts
26-Feb-11 07:41 12.150140 -86.247166 96 1568ft 179kts
26-Feb-11 07:42 12.145155 -86.201596 96 681ft 151kts
26-Feb-11 07:43 12.141444 -86.168089 97 201ft 28kts
26-Feb-11 07:44 12.142323 -86.165981 287 201ft 15kts
26-Feb-11 07:45 12.143055 -86.172242 274 201ft 28kts
26-Feb-11 07:46 12.143727 -86.177692 280 201ft 0kts
26-Feb-11 07:47 12.142686 -86.178720 101 201ft 8kts
26-Feb-11 07:48 12.142274 -86.175108 96 201ft 92kts
26-Feb-11 07:49 12.168408 -86.144232 344 1289ft 235kts
26-Feb-11 07:50 12.185295 -86.203042 269 2433ft 237kts
26-Feb-11 07:51 12.187018 -86.271123 282 3824ft 242kts
26-Feb-11 07:52 12.209089 -86.336654 292 5228ft 247kts
26-Feb-11 07:53 12.236342 -86.403805 293 6574ft 278kts
26-Feb-11 07:54 12.268078 -86.480512 293 8005ft 302kts
26-Feb-11 07:55 12.301360 -86.560872 293 9415ft 309kts
26-Feb-11 07:56 12.335547 -86.643547 292 9759ft 323kts
26-Feb-11 07:57 12.370398 -86.728034 292 9760ft 322kts
26-Feb-11 07:58 12.405264 -86.812468 292 9760ft 322kts
26-Feb-11 07:59 12.440103 -86.896910 292 9760ft 322kts
26-Feb-11 08:01 12.509686 -87.065817 292 9760ft 322kts
26-Feb-11 08:02 12.544321 -87.150021 292 9760ft 322kts
26-Feb-11 08:03 12.579083 -87.234622 292 9760ft 322kts
26-Feb-11 08:04 12.613599 -87.318708 292 9760ft 322kts
26-Feb-11 08:05 12.648197 -87.403057 293 9764ft 331kts
26-Feb-11 08:06 12.684891 -87.492596 293 9760ft 345kts
26-Feb-11 08:07 12.721645 -87.582419 293 9760ft 344kts
26-Feb-11 08:08 12.758388 -87.672511 292 9760ft 344kts
26-Feb-11 08:09 12.795326 -87.763077 292 9760ft 344kts
26-Feb-11 08:10 12.812512 -87.805214 292 9760ft 344kts
26-Feb-11 08:11 12.849333 -87.895556 292 9760ft 344kts
26-Feb-11 08:12 12.886197 -87.986107 292 9760ft 344kts
26-Feb-11 08:13 12.923120 -88.076903 292 9760ft 344kts
26-Feb-11 08:14 12.959965 -88.167612 292 9752ft 343kts
26-Feb-11 08:15 12.996549 -88.257755 292 9752ft 343kts
26-Feb-11 08:16 13.033211 -88.348252 292 9752ft 342kts
26-Feb-11 08:17 13.069699 -88.438397 292 9752ft 342kts
26-Feb-11 08:18 13.105998 -88.528151 292 9752ft 342kts
26-Feb-11 08:19 13.142421 -88.618345 292 9752ft 343kts
26-Feb-11 08:20 13.178076 -88.707014 292 9752ft 341kts
26-Feb-11 08:21 13.210213 -88.786794 292 9751ft 277kts
26-Feb-11 08:22 13.237025 -88.853337 292 9753ft 250kts
26-Feb-11 08:23 13.255345 -88.921750 278 9052ft 248kts
26-Feb-11 08:24 13.265528 -88.987800 279 7885ft 219kts
26-Feb-11 08:25 13.273490 -89.038414 279 6909ft 217kts
26-Feb-11 08:26 13.294326 -89.095834 290 5822ft 215kts
26-Feb-11 08:27 13.316006 -89.153134 290 4718ft 214kts
26-Feb-11 08:28 13.337769 -89.209524 302 3602ft 212kts
26-Feb-11 08:29 13.387979 -89.202627 63 2332ft 195kts
26-Feb-11 08:30 13.405255 -89.155023 70 1551ft 178kts
26-Feb-11 08:31 13.419554 -89.115263 70 894ft 178kts
26-Feb-11 08:32 13.437069 -89.066591 69 115ft 152kts
26-Feb-11 08:33 13.441691 -89.053657 68 108ft 19kts
26-Feb-11 08:34 13.444100 -89.054758 249 108ft 10kts
26-Feb-11 08:35 13.444550 -89.055674 340 108ft 0kts
26-Feb-11 08:36 13.444550 -89.055674 340 108ft 0kts

Navigation Log

Ident Type
Flight plan parsing failed, navigation log unavailable